createdAt,value
2017-11-26T00:00:47.657Z,24.29
2017-11-26T00:01:48.127Z,24.36
2017-11-26T00:02:48.600Z,24.36
2017-11-26T00:03:49.071Z,24.43
2017-11-26T00:04:49.592Z,24.33
2017-11-26T00:05:50.013Z,24.26
2017-11-26T00:06:50.485Z,24.29
2017-11-26T00:07:50.959Z,24.40
2017-11-26T00:08:51.427Z,24.61
2017-11-26T00:09:51.951Z,24.72
2017-11-26T00:10:52.374Z,24.65
2017-11-26T00:11:52.853Z,24.68
2017-11-26T00:12:53.316Z,24.65
2017-11-26T00:13:53.787Z,24.76
2017-11-26T00:14:54.314Z,24.86
2017-11-26T00:15:54.735Z,24.86
2017-11-26T00:16:55.203Z,24.86
2017-11-26T00:17:55.676Z,24.86
2017-11-26T00:18:56.149Z,24.86
2017-11-26T00:19:56.672Z,24.93
2017-11-26T00:20:57.091Z,25.08
2017-11-26T00:21:57.565Z,24.90
2017-11-26T00:22:58.038Z,24.93
2017-11-26T00:23:58.510Z,24.93
2017-11-26T00:24:59.029Z,24.94
2017-11-26T00:25:59.452Z,25.11
2017-11-26T00:26:59.923Z,25.22
2017-11-26T00:28:00.395Z,25.11
2017-11-26T00:29:00.867Z,25.08
2017-11-26T00:30:01.390Z,25.01
2017-11-26T00:31:01.814Z,24.94
2017-11-26T00:32:02.289Z,24.83
2017-11-26T00:33:02.754Z,24.58
2017-11-26T00:34:03.230Z,24.51
2017-11-26T00:35:03.750Z,24.62
2017-11-26T00:36:04.173Z,24.33
2017-11-26T00:37:04.642Z,24.44
2017-11-26T00:38:05.116Z,24.47
2017-11-26T00:39:05.587Z,24.51
2017-11-26T00:40:06.110Z,24.58
2017-11-26T00:41:06.530Z,24.44
2017-11-26T00:42:07.002Z,24.40
2017-11-26T00:43:07.474Z,24.44
2017-11-26T00:44:07.946Z,24.48
2017-11-26T00:45:08.475Z,24.37
2017-11-26T00:46:08.891Z,24.15
2017-11-26T00:47:09.363Z,24.23
2017-11-26T00:48:09.841Z,24.30
2017-11-26T00:49:10.304Z,24.41
2017-11-26T00:50:10.826Z,24.37
2017-11-26T00:51:11.247Z,24.44
2017-11-26T00:52:11.721Z,24.41
2017-11-26T00:53:12.191Z,24.44
2017-11-26T00:54:12.663Z,24.41
2017-11-26T00:55:13.186Z,24.37
2017-11-26T00:56:13.610Z,24.41
2017-11-26T00:57:14.077Z,24.73
2017-11-26T00:58:14.552Z,24.66
2017-11-26T00:59:15.022Z,24.41
2017-11-26T01:00:15.541Z,24.37
2017-11-26T01:01:15.965Z,24.41
2017-11-26T01:02:16.433Z,24.52
2017-11-26T01:03:16.905Z,24.62
2017-11-26T01:04:17.378Z,24.59
2017-11-26T01:05:17.901Z,24.66
2017-11-26T01:06:18.319Z,24.77
2017-11-26T01:07:18.793Z,24.80
2017-11-26T01:08:19.266Z,24.73
2017-11-26T01:09:19.734Z,24.73
2017-11-26T01:10:20.257Z,24.87
2017-11-26T01:11:20.676Z,24.95
2017-11-26T01:12:21.149Z,24.94
2017-11-26T01:13:21.624Z,24.91
2017-11-26T01:14:22.089Z,24.94
2017-11-26T01:15:22.615Z,24.94
2017-11-26T01:16:23.032Z,24.94
2017-11-26T01:17:23.502Z,25.09
2017-11-26T01:18:23.976Z,25.02
2017-11-26T01:19:24.447Z,25.02
2017-11-26T01:20:24.970Z,25.09
2017-11-26T01:21:25.387Z,25.05
2017-11-26T01:22:25.858Z,25.05
2017-11-26T01:23:26.330Z,25.09
2017-11-26T01:24:26.801Z,25.16
2017-11-26T01:25:27.325Z,25.16
2017-11-26T01:26:27.743Z,25.19
2017-11-26T01:27:28.217Z,25.34
2017-11-26T01:28:28.686Z,25.16
2017-11-26T01:29:29.158Z,25.16
2017-11-26T01:30:29.681Z,25.30
2017-11-26T01:31:30.099Z,25.23
2017-11-26T01:32:30.577Z,25.23
2017-11-26T01:33:31.043Z,25.23
2017-11-26T01:34:31.515Z,25.15
2017-11-26T01:35:32.035Z,25.19
2017-11-26T01:36:32.457Z,25.26
2017-11-26T01:37:32.929Z,25.16
2017-11-26T01:38:33.407Z,25.15
2017-11-26T01:39:33.874Z,25.23
2017-11-26T01:40:34.394Z,25.23
2017-11-26T01:41:34.820Z,25.23
2017-11-26T01:42:35.308Z,25.15
2017-11-26T01:43:35.759Z,25.23
2017-11-26T01:44:36.234Z,25.30
2017-11-26T01:45:36.752Z,25.22
2017-11-26T01:46:37.174Z,25.29
2017-11-26T01:47:37.642Z,25.33
2017-11-26T01:48:38.118Z,25.30
2017-11-26T01:49:38.593Z,25.37
2017-11-26T01:50:39.121Z,25.37
2017-11-26T01:51:39.533Z,25.29
2017-11-26T01:52:40.002Z,25.36
2017-11-26T01:53:40.475Z,25.36
2017-11-26T01:54:40.956Z,25.36
2017-11-26T01:55:41.469Z,25.33
2017-11-26T01:56:41.931Z,25.29
2017-11-26T01:57:42.360Z,25.36
2017-11-26T01:58:42.837Z,25.36
2017-11-26T01:59:43.304Z,25.40
2017-11-26T02:00:43.828Z,25.50
2017-11-26T02:01:44.251Z,25.43
2017-11-26T02:02:44.719Z,25.43
2017-11-26T02:03:45.193Z,25.43
2017-11-26T02:04:45.667Z,25.43
2017-11-26T02:05:46.186Z,25.43
2017-11-26T02:06:46.609Z,25.36
2017-11-26T02:07:47.079Z,25.43
2017-11-26T02:08:47.551Z,25.47
2017-11-26T02:09:48.022Z,25.50
2017-11-26T02:10:48.546Z,25.50
2017-11-26T02:11:48.964Z,25.58
2017-11-26T02:12:49.439Z,25.47
2017-11-26T02:13:49.906Z,25.43
2017-11-26T02:14:50.378Z,25.43
2017-11-26T02:15:50.901Z,25.47
2017-11-26T02:16:51.322Z,25.40
2017-11-26T02:17:51.796Z,25.43
2017-11-26T02:18:52.318Z,25.43
2017-11-26T02:19:52.740Z,25.43
2017-11-26T02:20:53.259Z,25.43
2017-11-26T02:21:53.679Z,25.43
2017-11-26T02:22:54.154Z,25.50
2017-11-26T02:23:54.624Z,25.50
2017-11-26T02:24:55.096Z,25.50
2017-11-26T02:25:55.618Z,25.57
2017-11-26T02:26:56.041Z,25.57
2017-11-26T02:27:56.511Z,25.72
2017-11-26T02:28:56.990Z,25.57
2017-11-26T02:29:57.454Z,25.57
2017-11-26T02:30:57.977Z,25.65
2017-11-26T02:31:58.399Z,25.57
2017-11-26T02:32:58.871Z,25.61
2017-11-26T02:33:59.341Z,25.57
2017-11-26T02:34:59.814Z,25.72
2017-11-26T02:36:00.332Z,25.71
2017-11-26T02:37:00.759Z,25.54
2017-11-26T02:38:01.228Z,25.64
2017-11-26T02:39:01.700Z,25.64
2017-11-26T02:40:02.173Z,25.61
2017-11-26T02:41:02.691Z,25.64
2017-11-26T02:42:03.112Z,25.78
2017-11-26T02:43:03.586Z,25.64
2017-11-26T02:44:04.056Z,25.71
2017-11-26T02:45:04.531Z,25.64
2017-11-26T02:46:05.056Z,26.07
2017-11-26T02:47:05.470Z,25.61
2017-11-26T02:48:05.942Z,25.64
2017-11-26T02:49:06.415Z,25.57
2017-11-26T02:50:06.884Z,25.93
2017-11-26T02:51:07.408Z,25.71
2017-11-26T02:52:07.831Z,25.64
2017-11-26T02:53:08.300Z,25.64
2017-11-26T02:54:08.772Z,25.71
2017-11-26T02:55:09.244Z,25.64
2017-11-26T02:56:09.770Z,25.71
2017-11-26T02:57:10.187Z,25.86
2017-11-26T02:58:10.662Z,26.00
2017-11-26T02:59:11.130Z,25.85
2017-11-26T03:00:11.599Z,25.82
2017-11-26T03:01:12.123Z,26.00
2017-11-26T03:02:12.545Z,25.92
2017-11-26T03:03:13.015Z,26.07
2017-11-26T03:04:13.485Z,25.99
2017-11-26T03:05:13.960Z,26.21
2017-11-26T03:06:14.478Z,26.03
2017-11-26T03:07:14.902Z,26.45
2017-11-26T03:08:15.375Z,26.17
2017-11-26T03:09:15.845Z,26.42
2017-11-26T03:10:16.315Z,26.24
2017-11-26T03:11:16.855Z,26.34
2017-11-26T03:12:17.256Z,26.24
2017-11-26T03:13:17.763Z,26.20
2017-11-26T03:14:18.204Z,26.06
2017-11-26T03:15:18.672Z,26.17
2017-11-26T03:16:19.192Z,26.13
2017-11-26T03:17:19.615Z,26.13
2017-11-26T03:18:20.083Z,26.20
2017-11-26T03:19:20.555Z,26.20
2017-11-26T03:20:21.028Z,26.20
2017-11-26T03:21:21.550Z,26.09
2017-11-26T03:22:21.979Z,26.16
2017-11-26T03:23:22.454Z,26.20
2017-11-26T03:24:22.917Z,26.13
2017-11-26T03:25:23.386Z,26.20
2017-11-26T03:26:23.905Z,26.24
2017-11-26T03:27:24.329Z,26.27
2017-11-26T03:28:24.798Z,26.48
2017-11-26T03:29:25.277Z,26.77
2017-11-26T03:30:25.743Z,26.41
2017-11-26T03:31:26.262Z,26.90
2017-11-26T03:32:26.683Z,26.55
2017-11-26T03:33:27.151Z,26.27
2017-11-26T03:34:27.621Z,26.41
2017-11-26T03:35:28.100Z,26.62
2017-11-26T03:36:28.614Z,26.69
2017-11-26T03:37:29.036Z,26.48
2017-11-26T03:38:29.507Z,26.69
2017-11-26T03:39:29.977Z,26.44
2017-11-26T03:40:30.449Z,26.55
2017-11-26T03:41:31.000Z,26.48
2017-11-26T03:42:31.391Z,26.76
2017-11-26T03:43:31.863Z,26.83
2017-11-26T03:44:32.335Z,26.48
2017-11-26T03:45:32.804Z,26.55
2017-11-26T03:46:33.325Z,26.55
2017-11-26T03:47:33.782Z,26.51
2017-11-26T03:48:34.223Z,26.65
2017-11-26T03:49:34.688Z,26.87
2017-11-26T03:50:35.163Z,26.62
2017-11-26T03:51:35.681Z,26.69
2017-11-26T03:52:36.106Z,26.62
2017-11-26T03:53:36.577Z,26.55
2017-11-26T03:54:37.046Z,27.08
2017-11-26T03:55:37.516Z,26.55
2017-11-26T03:56:38.043Z,26.62
2017-11-26T03:57:38.460Z,26.90
2017-11-26T03:58:38.933Z,26.55
2017-11-26T03:59:39.404Z,26.83
2017-11-26T04:00:39.874Z,26.83
2017-11-26T04:01:40.396Z,26.69
2017-11-26T04:02:40.815Z,26.69
2017-11-26T04:03:41.289Z,26.69
2017-11-26T04:04:41.797Z,26.62
2017-11-26T04:05:42.230Z,26.69
2017-11-26T04:06:42.751Z,26.69
2017-11-26T04:07:43.171Z,26.62
2017-11-26T04:08:43.643Z,26.69
2017-11-26T04:09:44.117Z,26.69
2017-11-26T04:10:44.587Z,26.62
2017-11-26T04:11:45.109Z,26.69
2017-11-26T04:12:45.526Z,26.55
2017-11-26T04:13:46.000Z,26.90
2017-11-26T04:14:46.470Z,26.76
2017-11-26T04:15:46.941Z,26.97
2017-11-26T04:16:47.462Z,26.97
2017-11-26T04:17:47.880Z,26.97
2017-11-26T04:18:48.349Z,26.83
2017-11-26T04:19:48.822Z,26.83
2017-11-26T04:20:49.292Z,26.83
2017-11-26T04:21:49.817Z,27.11
2017-11-26T04:22:50.232Z,26.83
2017-11-26T04:23:50.703Z,26.69
2017-11-26T04:24:51.173Z,27.04
2017-11-26T04:25:51.645Z,27.04
2017-11-26T04:26:52.166Z,26.97
2017-11-26T04:27:52.587Z,27.04
2017-11-26T04:28:53.057Z,27.25
2017-11-26T04:29:53.527Z,27.53
2017-11-26T04:30:53.993Z,27.46
2017-11-26T04:31:54.514Z,27.39
2017-11-26T04:32:54.933Z,27.39
2017-11-26T04:33:55.431Z,27.53
2017-11-26T04:34:55.873Z,26.93
2017-11-26T04:35:56.348Z,27.46
2017-11-26T04:36:56.868Z,27.63
2017-11-26T04:37:57.287Z,27.00
2017-11-26T04:38:57.755Z,27.74
2017-11-26T04:39:58.226Z,27.28
2017-11-26T04:40:58.701Z,27.28
2017-11-26T04:41:59.219Z,27.46
2017-11-26T04:42:59.636Z,27.17
2017-11-26T04:44:00.107Z,27.21
2017-11-26T04:45:00.577Z,27.31
2017-11-26T04:46:01.045Z,27.21
2017-11-26T04:47:01.567Z,27.03
2017-11-26T04:48:01.987Z,27.10
2017-11-26T04:49:02.455Z,27.39
2017-11-26T04:50:02.934Z,27.32
2017-11-26T04:51:03.396Z,27.53
2017-11-26T04:52:03.917Z,27.46
2017-11-26T04:53:04.343Z,27.77
2017-11-26T04:54:04.803Z,27.74
2017-11-26T04:55:05.271Z,27.53
2017-11-26T04:56:05.743Z,27.42
2017-11-26T04:57:06.262Z,27.21
2017-11-26T04:58:06.681Z,27.67
2017-11-26T04:59:07.151Z,27.91
2017-11-26T05:00:07.620Z,27.52
2017-11-26T05:01:08.089Z,27.52
2017-11-26T05:02:08.612Z,27.74
2017-11-26T05:03:09.027Z,27.60
2017-11-26T05:04:09.497Z,27.67
2017-11-26T05:05:09.968Z,27.70
2017-11-26T05:06:10.438Z,27.38
2017-11-26T05:07:10.959Z,27.17
2017-11-26T05:08:11.374Z,27.38
2017-11-26T05:09:11.843Z,27.59
2017-11-26T05:10:12.313Z,27.66
2017-11-26T05:11:12.782Z,27.49
2017-11-26T05:12:13.302Z,27.59
2017-11-26T05:13:13.724Z,27.31
2017-11-26T05:14:14.193Z,27.66
2017-11-26T05:15:14.660Z,27.45
2017-11-26T05:16:15.129Z,27.52
2017-11-26T05:17:15.650Z,27.45
2017-11-26T05:18:16.072Z,27.24
2017-11-26T05:19:16.537Z,27.14
2017-11-26T05:20:17.008Z,27.45
2017-11-26T05:21:17.480Z,27.17
2017-11-26T05:22:18.000Z,27.17
2017-11-26T05:23:18.421Z,27.10
2017-11-26T05:24:18.887Z,27.24
2017-11-26T05:25:19.359Z,27.24
2017-11-26T05:26:19.839Z,27.52
2017-11-26T05:27:20.349Z,27.52
2017-11-26T05:28:20.768Z,27.60
2017-11-26T05:29:21.240Z,27.81
2017-11-26T05:30:21.708Z,27.31
2017-11-26T05:31:22.179Z,26.96
2017-11-26T05:32:22.699Z,27.24
2017-11-26T05:33:23.116Z,27.31
2017-11-26T05:34:23.591Z,27.21
2017-11-26T05:35:24.056Z,27.18
2017-11-26T05:36:24.527Z,27.31
2017-11-26T05:37:25.049Z,27.10
2017-11-26T05:38:25.469Z,27.10
2017-11-26T05:39:25.937Z,27.39
2017-11-26T05:40:26.410Z,27.18
2017-11-26T05:41:26.878Z,27.32
2017-11-26T05:42:27.400Z,27.11
2017-11-26T05:43:27.820Z,27.10
2017-11-26T05:44:28.287Z,27.46
2017-11-26T05:45:28.760Z,27.46
2017-11-26T05:46:29.229Z,27.46
2017-11-26T05:47:29.755Z,27.32
2017-11-26T05:48:30.168Z,27.56
2017-11-26T05:49:30.640Z,27.74
2017-11-26T05:50:31.109Z,27.32
2017-11-26T05:51:31.579Z,27.18
2017-11-26T05:52:32.107Z,27.32
2017-11-26T05:53:32.522Z,26.97
2017-11-26T05:54:32.995Z,27.53
2017-11-26T05:55:33.463Z,27.88
2017-11-26T05:56:33.932Z,27.18
2017-11-26T05:57:34.455Z,27.64
2017-11-26T05:58:34.873Z,27.50
2017-11-26T05:59:35.346Z,27.25
2017-11-26T06:00:35.816Z,27.25
2017-11-26T06:01:36.289Z,27.32
2017-11-26T06:02:36.810Z,27.60
2017-11-26T06:03:37.229Z,27.50
2017-11-26T06:04:37.702Z,27.81
2017-11-26T06:05:38.177Z,27.46
2017-11-26T06:06:38.643Z,27.81
2017-11-26T06:07:39.165Z,27.53
2017-11-26T06:08:39.584Z,27.57
2017-11-26T06:09:40.057Z,27.53
2017-11-26T06:10:40.526Z,27.22
2017-11-26T06:11:41.000Z,27.46
2017-11-26T06:12:41.522Z,27.11
2017-11-26T06:13:41.942Z,27.18
2017-11-26T06:14:42.411Z,27.32
2017-11-26T06:15:42.884Z,27.11
2017-11-26T06:16:43.354Z,27.11
2017-11-26T06:17:43.880Z,27.18
2017-11-26T06:18:44.296Z,27.82
2017-11-26T06:19:44.767Z,27.25
2017-11-26T06:20:45.245Z,27.47
2017-11-26T06:21:45.709Z,27.18
2017-11-26T06:22:46.233Z,27.11
2017-11-26T06:23:46.650Z,27.25
2017-11-26T06:24:47.123Z,27.85
2017-11-26T06:25:47.603Z,27.78
2017-11-26T06:26:48.066Z,27.29
2017-11-26T06:27:48.586Z,27.32
2017-11-26T06:28:49.008Z,27.54
2017-11-26T06:29:49.504Z,27.68
2017-11-26T06:30:49.951Z,28.10
2017-11-26T06:31:50.421Z,27.75
2017-11-26T06:32:50.943Z,27.75
2017-11-26T06:33:51.361Z,27.89
2017-11-26T06:34:51.834Z,27.75
2017-11-26T06:35:52.302Z,27.68
2017-11-26T06:36:52.774Z,27.75
2017-11-26T06:37:53.295Z,28.31
2017-11-26T06:38:53.716Z,27.61
2017-11-26T06:39:54.188Z,27.82
2017-11-26T06:40:54.659Z,27.54
2017-11-26T06:41:55.127Z,28.27
2017-11-26T06:42:55.650Z,28.38
2017-11-26T06:43:56.071Z,28.31
2017-11-26T06:44:56.540Z,27.89
2017-11-26T06:45:57.013Z,27.75
2017-11-26T06:46:57.479Z,28.03
2017-11-26T06:47:58.005Z,27.75
2017-11-26T06:48:58.428Z,27.92
2017-11-26T06:49:58.895Z,28.03
2017-11-26T06:50:59.365Z,27.96
2017-11-26T06:51:59.835Z,28.24
2017-11-26T06:53:00.358Z,27.89
2017-11-26T06:54:00.776Z,27.54
2017-11-26T06:55:01.248Z,27.58
2017-11-26T06:56:01.720Z,27.40
2017-11-26T06:57:02.192Z,27.33
2017-11-26T06:58:02.709Z,27.33
2017-11-26T06:59:03.132Z,27.19
2017-11-26T07:00:03.603Z,26.98
2017-11-26T07:01:04.073Z,26.13
2017-11-26T07:02:04.546Z,25.14
2017-11-26T07:03:05.067Z,24.78
2017-11-26T07:04:05.487Z,24.21
2017-11-26T07:05:05.959Z,23.57
2017-11-26T07:06:06.431Z,23.14
2017-11-26T07:07:06.902Z,22.78
2017-11-26T07:08:07.425Z,22.63
2017-11-26T07:09:07.844Z,22.56
2017-11-26T07:10:08.313Z,22.23
2017-11-26T07:11:08.784Z,21.91
2017-11-26T07:12:09.254Z,21.83
2017-11-26T07:13:09.778Z,21.36
2017-11-26T07:14:10.201Z,21.11
2017-11-26T07:15:10.670Z,19.87
2017-11-26T07:16:11.139Z,20.52
2017-11-26T07:17:11.609Z,19.94
2017-11-26T07:18:12.128Z,19.46
2017-11-26T07:19:12.553Z,20.00
2017-11-26T07:20:13.017Z,19.71
2017-11-26T07:21:13.488Z,18.98
2017-11-26T07:22:13.960Z,19.48
2017-11-26T07:23:14.482Z,19.37
2017-11-26T07:24:14.897Z,18.97
2017-11-26T07:25:15.369Z,19.33
2017-11-26T07:26:15.839Z,18.96
2017-11-26T07:27:16.305Z,20.20
2017-11-26T07:28:16.826Z,19.25
2017-11-26T07:29:17.246Z,19.32
2017-11-26T07:30:17.714Z,18.88
2017-11-26T07:31:18.181Z,19.71
2017-11-26T07:32:18.649Z,18.87
2017-11-26T07:33:19.168Z,19.16
2017-11-26T07:34:19.590Z,19.59
2017-11-26T07:35:20.054Z,19.66
2017-11-26T07:36:20.526Z,19.19
2017-11-26T07:37:20.990Z,19.52
2017-11-26T07:38:21.508Z,19.51
2017-11-26T07:39:21.930Z,19.87
2017-11-26T07:40:22.397Z,19.73
2017-11-26T07:41:22.861Z,19.36
2017-11-26T07:42:23.332Z,19.72
2017-11-26T07:43:23.851Z,19.80
2017-11-26T07:44:24.265Z,19.87
2017-11-26T07:45:24.732Z,20.01
2017-11-26T07:46:25.219Z,19.39
2017-11-26T07:47:25.670Z,19.61
2017-11-26T07:48:26.188Z,19.57
2017-11-26T07:49:26.605Z,19.57
2017-11-26T07:50:27.072Z,19.93
2017-11-26T07:51:27.541Z,19.57
2017-11-26T07:52:28.005Z,20.15
2017-11-26T07:53:28.525Z,20.07
2017-11-26T07:54:28.940Z,20.58
2017-11-26T07:55:29.420Z,20.25
2017-11-26T07:56:29.874Z,20.21
2017-11-26T07:57:30.347Z,20.21
2017-11-26T07:58:30.863Z,20.36
2017-11-26T07:59:31.290Z,20.00
2017-11-26T08:00:31.750Z,20.28
2017-11-26T08:01:32.217Z,20.72
2017-11-26T08:02:32.687Z,20.79
2017-11-26T08:03:33.205Z,19.59
2017-11-26T08:04:33.619Z,19.27
2017-11-26T08:05:34.088Z,19.55
2017-11-26T08:06:34.554Z,19.84
2017-11-26T08:07:35.027Z,19.99
2017-11-26T08:08:35.542Z,19.84
2017-11-26T08:09:35.959Z,19.26
2017-11-26T08:10:36.429Z,19.70
2017-11-26T08:11:36.892Z,19.84
2017-11-26T08:12:37.361Z,19.00
2017-11-26T08:13:37.880Z,19.48
2017-11-26T08:14:38.298Z,19.33
2017-11-26T08:15:38.781Z,19.69
2017-11-26T08:16:39.229Z,20.34
2017-11-26T08:17:39.709Z,20.27
2017-11-26T08:18:40.216Z,20.27
2017-11-26T08:19:40.642Z,19.98
2017-11-26T08:20:41.100Z,19.65
2017-11-26T08:21:41.570Z,20.63
2017-11-26T08:22:42.038Z,19.97
2017-11-26T08:23:42.556Z,20.12
2017-11-26T08:24:42.970Z,20.05
2017-11-26T08:25:43.440Z,20.23
2017-11-26T08:26:43.908Z,20.73
2017-11-26T08:27:44.375Z,20.69
2017-11-26T08:28:44.894Z,19.93
2017-11-26T08:29:45.310Z,19.90
2017-11-26T08:30:45.779Z,20.26
2017-11-26T08:31:46.242Z,20.04
2017-11-26T08:32:46.711Z,19.89
2017-11-26T08:33:47.228Z,19.75
2017-11-26T08:34:47.644Z,20.29
2017-11-26T08:35:48.111Z,20.25
2017-11-26T08:36:48.577Z,20.03
2017-11-26T08:37:49.047Z,20.68
2017-11-26T08:38:49.565Z,20.58
2017-11-26T08:39:49.980Z,20.90
2017-11-26T08:40:50.450Z,20.75
2017-11-26T08:41:50.914Z,20.83
2017-11-26T08:42:51.381Z,20.68
2017-11-26T08:43:51.901Z,20.36
2017-11-26T08:44:52.315Z,20.72
2017-11-26T08:45:52.789Z,20.39
2017-11-26T08:46:53.252Z,20.46
2017-11-26T08:47:53.719Z,20.28
2017-11-26T08:48:54.236Z,20.28
2017-11-26T08:49:54.652Z,19.99
2017-11-26T08:50:55.121Z,20.46
2017-11-26T08:51:55.587Z,20.64
2017-11-26T08:52:56.055Z,20.97
2017-11-26T08:53:56.571Z,20.61
2017-11-26T08:54:56.992Z,20.89
2017-11-26T08:55:57.457Z,20.82
2017-11-26T08:56:57.924Z,20.64
2017-11-26T08:57:58.394Z,20.75
2017-11-26T08:58:58.909Z,21.72
2017-11-26T08:59:59.329Z,21.04
2017-11-26T09:00:59.796Z,21.36
2017-11-26T09:02:00.261Z,21.25
2017-11-26T09:03:00.738Z,21.40
2017-11-26T09:04:01.250Z,21.18
2017-11-26T09:05:01.663Z,21.32
2017-11-26T09:06:02.133Z,21.04
2017-11-26T09:07:02.600Z,21.39
2017-11-26T09:08:03.076Z,21.39
2017-11-26T09:09:03.582Z,21.18
2017-11-26T09:10:04.003Z,21.32
2017-11-26T09:11:04.469Z,20.82
2017-11-26T09:12:04.937Z,20.56
2017-11-26T09:13:05.405Z,21.21
2017-11-26T09:14:05.923Z,21.32
2017-11-26T09:15:06.348Z,20.74
2017-11-26T09:16:06.810Z,20.60
2017-11-26T09:17:07.273Z,21.10
2017-11-26T09:18:07.743Z,20.35
2017-11-26T09:19:08.262Z,20.67
2017-11-26T09:20:08.683Z,20.74
2017-11-26T09:21:09.142Z,20.67
2017-11-26T09:22:09.617Z,20.24
2017-11-26T09:23:10.078Z,20.81
2017-11-26T09:24:10.596Z,19.80
2017-11-26T09:25:11.013Z,20.52
2017-11-26T09:26:11.479Z,20.13
2017-11-26T09:27:11.946Z,19.58
2017-11-26T09:28:12.411Z,19.80
2017-11-26T09:29:12.930Z,19.94
2017-11-26T09:30:13.347Z,20.16
2017-11-26T09:31:13.810Z,20.09
2017-11-26T09:32:14.280Z,19.40
2017-11-26T09:33:14.746Z,19.33
2017-11-26T09:34:15.264Z,20.16
2017-11-26T09:35:15.678Z,20.12
2017-11-26T09:36:16.147Z,19.58
2017-11-26T09:37:16.613Z,19.94
2017-11-26T09:38:17.093Z,19.98
2017-11-26T09:39:17.596Z,19.79
2017-11-26T09:40:18.013Z,19.47
2017-11-26T09:41:18.501Z,20.05
2017-11-26T09:42:18.948Z,20.80
2017-11-26T09:43:19.417Z,20.66
2017-11-26T09:44:19.936Z,21.09
2017-11-26T09:45:20.351Z,21.13
2017-11-26T09:46:20.819Z,21.02
2017-11-26T09:47:21.285Z,20.91
2017-11-26T09:48:21.757Z,21.34
2017-11-26T09:49:22.273Z,21.02
2017-11-26T09:50:22.709Z,21.60
2017-11-26T09:51:23.159Z,21.45
2017-11-26T09:52:23.627Z,21.09
2017-11-26T09:53:24.094Z,21.09
2017-11-26T09:54:24.611Z,20.88
2017-11-26T09:55:25.033Z,20.98
2017-11-26T09:56:25.496Z,21.45
2017-11-26T09:57:25.965Z,20.52
2017-11-26T09:58:26.448Z,21.38
2017-11-26T09:59:26.953Z,21.67
2017-11-26T10:00:27.369Z,21.31
2017-11-26T10:01:27.834Z,21.09
2017-11-26T10:02:28.306Z,21.02
2017-11-26T10:03:28.771Z,20.59
2017-11-26T10:04:29.291Z,20.44
2017-11-26T10:05:29.706Z,20.30
2017-11-26T10:06:30.173Z,20.30
2017-11-26T10:07:30.645Z,21.16
2017-11-26T10:08:31.112Z,20.80
2017-11-26T10:09:31.630Z,21.16
2017-11-26T10:10:32.047Z,20.95
2017-11-26T10:11:32.512Z,21.02
2017-11-26T10:12:32.983Z,21.20
2017-11-26T10:13:33.447Z,21.31
2017-11-26T10:14:33.969Z,21.30
2017-11-26T10:15:34.386Z,21.30
2017-11-26T10:16:34.853Z,21.66
2017-11-26T10:17:35.320Z,21.70
2017-11-26T10:18:35.784Z,21.59
2017-11-26T10:19:36.306Z,21.30
2017-11-26T10:20:36.725Z,21.23
2017-11-26T10:21:37.190Z,21.73
2017-11-26T10:22:37.660Z,21.45
2017-11-26T10:23:38.124Z,21.66
2017-11-26T10:24:38.644Z,21.80
2017-11-26T10:25:39.061Z,22.02
2017-11-26T10:26:39.536Z,21.30
2017-11-26T10:27:39.994Z,21.16
2017-11-26T10:28:40.461Z,20.94
2017-11-26T10:29:41.033Z,21.52
2017-11-26T10:30:41.397Z,21.48
2017-11-26T10:31:41.866Z,21.59
2017-11-26T10:32:42.332Z,21.55
2017-11-26T10:33:42.801Z,21.66
2017-11-26T10:34:43.622Z,21.59
2017-11-26T10:35:43.735Z,21.80
2017-11-26T10:36:44.205Z,21.73
2017-11-26T10:37:44.667Z,21.66
2017-11-26T10:38:45.138Z,21.80
2017-11-26T10:39:45.657Z,21.44
2017-11-26T10:40:46.072Z,21.44
2017-11-26T10:41:46.537Z,21.19
2017-11-26T10:42:47.007Z,20.29
2017-11-26T10:43:47.474Z,20.29
2017-11-26T10:44:47.992Z,20.94
2017-11-26T10:45:48.409Z,21.22
2017-11-26T10:46:48.877Z,21.15
2017-11-26T10:47:49.341Z,21.01
2017-11-26T10:48:49.812Z,21.01
2017-11-26T10:49:50.328Z,21.01
2017-11-26T10:50:50.744Z,21.01
2017-11-26T10:51:51.211Z,21.37
2017-11-26T10:52:51.680Z,21.44
2017-11-26T10:53:52.145Z,20.83
2017-11-26T10:54:52.666Z,21.11
2017-11-26T10:55:53.081Z,21.29
2017-11-26T10:56:53.552Z,21.47
2017-11-26T10:57:54.020Z,21.33
2017-11-26T10:58:54.485Z,21.62
2017-11-26T10:59:55.256Z,21.44
2017-11-26T11:00:55.423Z,21.62
2017-11-26T11:01:55.890Z,21.87
2017-11-26T11:02:56.357Z,21.65
2017-11-26T11:03:56.823Z,21.80
2017-11-26T11:04:57.341Z,21.36
2017-11-26T11:05:57.760Z,21.00
2017-11-26T11:06:58.225Z,21.36
2017-11-26T11:07:58.692Z,20.93
2017-11-26T11:08:59.162Z,21.29
2017-11-26T11:09:59.676Z,20.86
2017-11-26T11:11:00.094Z,21.29
2017-11-26T11:12:00.562Z,21.72
2017-11-26T11:13:01.029Z,21.36
2017-11-26T11:14:01.493Z,21.29
2017-11-26T11:15:02.012Z,21.22
2017-11-26T11:16:02.427Z,21.15
2017-11-26T11:17:02.894Z,21.15
2017-11-26T11:18:03.361Z,21.15
2017-11-26T11:19:03.827Z,21.00
2017-11-26T11:20:04.345Z,21.43
2017-11-26T11:21:04.763Z,21.29
2017-11-26T11:22:05.227Z,21.36
2017-11-26T11:23:05.696Z,21.58
2017-11-26T11:24:06.163Z,21.50
2017-11-26T11:25:06.932Z,21.50
2017-11-26T11:26:07.094Z,21.50
2017-11-26T11:27:07.560Z,21.00
2017-11-26T11:28:08.027Z,21.43
2017-11-26T11:29:08.493Z,21.50
2017-11-26T11:30:09.013Z,21.14
2017-11-26T11:31:09.429Z,21.36
2017-11-26T11:32:09.896Z,21.47
2017-11-26T11:33:10.363Z,21.39
2017-11-26T11:34:10.826Z,21.65
2017-11-26T11:35:11.345Z,21.50
2017-11-26T11:36:11.761Z,21.25
2017-11-26T11:37:12.236Z,20.93
2017-11-26T11:38:12.700Z,21.21
2017-11-26T11:39:13.163Z,21.29
2017-11-26T11:40:13.681Z,21.21
2017-11-26T11:41:14.095Z,21.68
2017-11-26T11:42:14.561Z,21.07
2017-11-26T11:43:15.031Z,21.36
2017-11-26T11:44:15.498Z,21.43
2017-11-26T11:45:16.015Z,20.93
2017-11-26T11:46:16.432Z,21.11
2017-11-26T11:47:16.899Z,20.71
2017-11-26T11:48:17.367Z,20.64
2017-11-26T11:49:17.831Z,20.31
2017-11-26T11:50:18.352Z,20.64
2017-11-26T11:51:18.769Z,20.28
2017-11-26T11:52:19.237Z,20.64
2017-11-26T11:53:19.704Z,20.28
2017-11-26T11:54:20.169Z,20.49
2017-11-26T11:55:20.686Z,20.64
2017-11-26T11:56:21.104Z,20.67
2017-11-26T11:57:21.571Z,20.57
2017-11-26T11:58:22.038Z,20.49
2017-11-26T11:59:22.523Z,20.71
2017-11-26T12:00:23.028Z,20.85
2017-11-26T12:01:23.442Z,20.49
2017-11-26T12:02:23.910Z,20.93
2017-11-26T12:03:24.377Z,20.57
2017-11-26T12:04:24.846Z,20.35
2017-11-26T12:05:25.363Z,20.06
2017-11-26T12:06:25.781Z,20.42
2017-11-26T12:07:26.248Z,20.28
2017-11-26T12:08:26.715Z,20.31
2017-11-26T12:09:27.182Z,20.42
2017-11-26T12:10:27.697Z,20.46
2017-11-26T12:11:28.118Z,20.67
2017-11-26T12:12:28.583Z,20.56
2017-11-26T12:13:29.053Z,20.49
2017-11-26T12:14:29.517Z,20.42
2017-11-26T12:15:30.035Z,20.06
2017-11-26T12:16:30.455Z,20.31
2017-11-26T12:17:30.928Z,20.64
2017-11-26T12:18:31.386Z,20.20
2017-11-26T12:19:31.857Z,20.42
2017-11-26T12:20:32.376Z,20.49
2017-11-26T12:21:32.792Z,20.60
2017-11-26T12:22:33.261Z,20.71
2017-11-26T12:23:33.730Z,20.64
2017-11-26T12:24:34.191Z,20.56
2017-11-26T12:25:34.711Z,20.49
2017-11-26T12:26:35.133Z,20.27
2017-11-26T12:27:35.593Z,20.70
2017-11-26T12:28:36.057Z,20.38
2017-11-26T12:29:36.524Z,20.27
2017-11-26T12:30:37.042Z,20.41
2017-11-26T12:31:37.457Z,20.59
2017-11-26T12:32:37.926Z,20.30
2017-11-26T12:33:38.391Z,19.98
2017-11-26T12:34:38.855Z,20.66
2017-11-26T12:35:39.371Z,20.34
2017-11-26T12:36:39.796Z,20.12
2017-11-26T12:37:40.253Z,20.41
2017-11-26T12:38:40.720Z,20.27
2017-11-26T12:39:41.184Z,20.48
2017-11-26T12:40:41.704Z,20.27
2017-11-26T12:41:42.116Z,20.34
2017-11-26T12:42:42.583Z,19.40
2017-11-26T12:43:43.050Z,20.45
2017-11-26T12:44:43.516Z,19.76
2017-11-26T12:45:44.034Z,19.44
2017-11-26T12:46:44.453Z,19.76
2017-11-26T12:47:44.914Z,19.40
2017-11-26T12:48:45.378Z,19.98
2017-11-26T12:49:45.847Z,20.05
2017-11-26T12:50:46.365Z,19.90
2017-11-26T12:51:46.776Z,20.26
2017-11-26T12:52:47.243Z,19.54
2017-11-26T12:53:47.712Z,19.58
2017-11-26T12:54:48.179Z,19.69
2017-11-26T12:55:48.692Z,19.61
2017-11-26T12:56:49.108Z,19.90
2017-11-26T12:57:49.575Z,20.04
2017-11-26T12:58:50.040Z,19.47